Time;durP1;ratioP1;P1;durP2;ratioP2;P2;SDS_P1;SDS_P2;PMS_P1;PMS_P2;Temp;Humidity;BMP_temperature;BMP_pressure;BME280_temperature;BME280_humidity;BME280_pressure;Samples;Min_cycle;Max_cycle;Signal;HPM_P1;HPM_P2
2022/03/10 00:02:13;;;;;;;16.85;14.43;;;;;;;;;;5034315;28;20432;-84
2022/03/10 00:04:40;;;;;;;18.65;15.80;;;;;;;;;;5040639;28;20840;-83
2022/03/10 00:07:06;;;;;;;19.80;15.18;;;;;;;;;;5035201;28;20425;-84
2022/03/10 00:09:33;;;;;;;20.10;15.87;;;;;;;;;;5039308;28;20507;-82
2022/03/10 00:11:59;;;;;;;21.02;15.30;;;;;;;;;;5035882;28;21011;-82
2022/03/10 00:14:26;;;;;;;18.02;15.10;;;;;;;;;;5038222;28;20437;-85
2022/03/10 00:16:52;;;;;;;17.83;14.37;;;;;;;;;;5041320;28;20477;-84
2022/03/10 00:19:20;;;;;;;19.42;15.60;;;;;;;;;;5036597;28;20443;-83
2022/03/10 00:21:47;;;;;;;22.30;15.90;;;;;;;;;;5039522;28;20485;-83
2022/03/10 00:24:14;;;;;;;19.70;15.90;;;;;;;;;;5039190;28;20417;-83
2022/03/10 00:26:41;;;;;;;20.85;15.60;;;;;;;;;;5041287;28;20421;-83
2022/03/10 00:29:07;;;;;;;21.90;15.80;;;;;;;;;;5039059;28;20463;-84
2022/03/10 00:31:34;;;;;;;19.65;15.55;;;;;;;;;;5039918;28;20417;-83
2022/03/10 00:34:00;;;;;;;20.00;16.52;;;;;;;;;;5039386;28;20417;-84
2022/03/10 00:36:28;;;;;;;22.35;16.88;;;;;;;;;;5039467;28;20912;-83
2022/03/10 00:38:54;;;;;;;21.08;15.80;;;;;;;;;;5034438;28;20492;-84
2022/03/10 00:41:21;;;;;;;22.75;16.50;;;;;;;;;;5039253;28;20431;-84
2022/03/10 00:43:47;;;;;;;21.17;16.10;;;;;;;;;;5036143;28;20431;-83
2022/03/10 00:46:13;;;;;;;20.60;16.30;;;;;;;;;;5039212;28;20456;-83
2022/03/10 00:48:39;;;;;;;18.20;14.85;;;;;;;;;;5037461;28;20840;-83
2022/03/10 00:51:06;;;;;;;21.90;15.50;;;;;;;;;;5039551;28;20830;-84
2022/03/10 00:53:34;;;;;;;18.65;15.98;;;;;;;;;;5032745;28;20426;-83
2022/03/10 00:56:00;;;;;;;20.10;15.77;;;;;;;;;;5033918;28;20435;-82
2022/03/10 00:58:27;;;;;;;19.67;15.32;;;;;;;;;;5037548;28;20429;-85
2022/03/10 01:00:53;;;;;;;21.45;15.52;;;;;;;;;;5031568;28;20437;-82
2022/03/10 01:03:20;;;;;;;22.00;15.83;;;;;;;;;;5059654;23;20483;-81
2022/03/10 01:05:46;;;;;;;20.02;15.63;;;;;;;;;;5007907;28;20466;-83
2022/03/10 01:08:13;;;;;;;22.38;15.60;;;;;;;;;;5006102;28;20440;-83
2022/03/10 01:10:40;;;;;;;20.48;16.45;;;;;;;;;;5005901;28;20949;-83
2022/03/10 01:13:12;;;;;;;19.73;15.90;;;;;;;;;;5005286;28;20432;-84
2022/03/10 01:15:38;;;;;;;20.90;15.38;;;;;;;;;;4984767;28;20453;-84
2022/03/10 01:18:04;;;;;;;22.00;16.13;;;;;;;;;;4984244;28;20422;-83
2022/03/10 01:20:31;;;;;;;22.48;16.55;;;;;;;;;;4983297;28;20442;-84
2022/03/10 01:22:57;;;;;;;18.55;15.50;;;;;;;;;;4985080;28;20447;-84
2022/03/10 01:25:23;;;;;;;21.13;15.65;;;;;;;;;;4987345;28;20458;-81
2022/03/10 01:27:51;;;;;;;18.08;15.38;;;;;;;;;;4984781;28;20914;-82
2022/03/10 01:30:17;;;;;;;19.40;15.55;;;;;;;;;;4988860;28;20424;-82
2022/03/10 01:32:44;;;;;;;22.05;16.60;;;;;;;;;;4989655;28;20430;-81
2022/03/10 01:35:11;;;;;;;21.20;15.68;;;;;;;;;;4986930;28;20432;-81
2022/03/10 01:37:37;;;;;;;18.60;15.07;;;;;;;;;;4987043;28;20418;-82
2022/03/10 01:40:05;;;;;;;23.23;16.40;;;;;;;;;;4986406;28;20450;-81
2022/03/10 01:42:31;;;;;;;21.65;15.57;;;;;;;;;;4988472;28;20478;-82
2022/03/10 01:44:58;;;;;;;20.23;15.88;;;;;;;;;;4987338;28;20463;-82
2022/03/10 01:47:25;;;;;;;21.60;15.85;;;;;;;;;;4985700;28;20439;-82
2022/03/10 01:49:51;;;;;;;21.88;16.10;;;;;;;;;;4988638;28;20511;-81
2022/03/10 01:52:19;;;;;;;20.13;15.20;;;;;;;;;;4985399;28;20472;-83
2022/03/10 01:54:45;;;;;;;22.85;16.35;;;;;;;;;;4985442;28;20432;-82
2022/03/10 01:57:12;;;;;;;20.65;15.75;;;;;;;;;;4987406;28;20422;-82
2022/03/10 01:59:38;;;;;;;20.95;17.05;;;;;;;;;;4986206;28;20447;-83
2022/03/10 02:02:06;;;;;;;22.98;16.58;;;;;;;;;;4986656;28;20422;-83
2022/03/10 02:04:33;;;;;;;21.50;16.02;;;;;;;;;;4986831;28;20526;-83
2022/03/10 02:07:01;;;;;;;21.10;16.50;;;;;;;;;;4987967;28;20423;-83
2022/03/10 02:12:11;;;;;;;20.60;17.35;;;;;;;;;;4985150;28;20531;-82
2022/03/10 02:17:22;;;;;;;21.10;15.80;;;;;;;;;;4986228;28;20429;-83
2022/03/10 02:19:50;;;;;;;23.02;16.67;;;;;;;;;;4986525;28;20431;-83
2022/03/10 02:22:18;;;;;;;20.73;16.70;;;;;;;;;;4985822;28;20626;-83
2022/03/10 02:24:45;;;;;;;22.52;16.70;;;;;;;;;;4984637;28;20451;-82
2022/03/10 02:27:14;;;;;;;20.45;16.35;;;;;;;;;;4986516;28;20462;-82
2022/03/10 02:29:41;;;;;;;22.40;16.42;;;;;;;;;;4985526;28;20422;-82
2022/03/10 02:32:07;;;;;;;21.65;16.75;;;;;;;;;;4985354;28;20455;-82
2022/03/10 02:34:34;;;;;;;20.15;16.60;;;;;;;;;;4988120;28;20427;-83
2022/03/10 02:37:00;;;;;;;22.45;16.95;;;;;;;;;;4988246;28;20493;-82
2022/03/10 02:39:27;;;;;;;23.50;16.52;;;;;;;;;;4985430;28;20488;-83
2022/03/10 02:41:54;;;;;;;20.00;17.08;;;;;;;;;;4985944;28;20426;-82
2022/03/10 02:44:20;;;;;;;21.23;17.25;;;;;;;;;;4985166;28;20458;-82
2022/03/10 02:46:46;;;;;;;21.73;16.90;;;;;;;;;;4988145;28;20449;-82
2022/03/10 02:49:12;;;;;;;21.77;17.60;;;;;;;;;;4984153;28;20505;-82
2022/03/10 02:51:39;;;;;;;22.73;17.10;;;;;;;;;;4983773;28;20498;-83
2022/03/10 02:54:05;;;;;;;23.70;16.20;;;;;;;;;;4986169;28;20932;-82
2022/03/10 02:56:33;;;;;;;23.83;17.80;;;;;;;;;;4985991;28;20435;-83
2022/03/10 02:58:59;;;;;;;24.30;17.17;;;;;;;;;;4981299;28;20838;-82
2022/03/10 03:01:25;;;;;;;21.60;17.48;;;;;;;;;;4985190;28;20859;-83
2022/03/10 03:03:52;;;;;;;23.70;17.55;;;;;;;;;;4985646;28;20461;-82
2022/03/10 03:06:19;;;;;;;23.02;16.73;;;;;;;;;;4984889;28;20817;-82
2022/03/10 03:08:45;;;;;;;22.40;17.60;;;;;;;;;;4984725;28;20434;-82
2022/03/10 03:11:11;;;;;;;28.53;17.93;;;;;;;;;;4984604;28;20430;-83
2022/03/10 03:13:39;;;;;;;21.48;16.75;;;;;;;;;;4987139;28;20841;-83
2022/03/10 03:16:05;;;;;;;22.70;18.25;;;;;;;;;;4986846;28;20492;-83
2022/03/10 03:18:32;;;;;;;21.60;16.73;;;;;;;;;;4985032;28;20432;-82
2022/03/10 03:20:58;;;;;;;21.67;16.65;;;;;;;;;;4983963;28;20855;-82
2022/03/10 03:23:24;;;;;;;23.67;16.85;;;;;;;;;;4985928;28;20424;-82
2022/03/10 03:25:50;;;;;;;21.45;16.80;;;;;;;;;;4987362;28;20487;-82
2022/03/10 03:28:17;;;;;;;22.58;17.40;;;;;;;;;;4986868;28;20851;-82
2022/03/10 03:30:44;;;;;;;25.00;18.05;;;;;;;;;;4986167;28;20428;-82
2022/03/10 03:33:11;;;;;;;21.00;16.35;;;;;;;;;;4986570;28;20432;-83
2022/03/10 03:35:37;;;;;;;24.88;17.58;;;;;;;;;;4985457;28;20426;-84
2022/03/10 03:38:03;;;;;;;23.40;17.33;;;;;;;;;;4985855;28;20414;-81
2022/03/10 03:40:29;;;;;;;24.60;17.47;;;;;;;;;;4988745;28;20460;-82
2022/03/10 03:42:55;;;;;;;26.10;17.83;;;;;;;;;;4983688;28;20418;-83
2022/03/10 03:45:22;;;;;;;22.80;17.70;;;;;;;;;;4989718;28;20438;-82
2022/03/10 03:47:50;;;;;;;24.00;17.60;;;;;;;;;;4989784;28;21000;-82
2022/03/10 03:50:16;;;;;;;24.98;18.25;;;;;;;;;;4988874;28;20787;-82
2022/03/10 03:52:42;;;;;;;23.95;17.67;;;;;;;;;;4991370;28;20488;-82
2022/03/10 03:55:09;;;;;;;22.60;17.50;;;;;;;;;;4988672;28;20481;-82
2022/03/10 03:57:35;;;;;;;22.75;18.02;;;;;;;;;;4988754;28;20457;-82
2022/03/10 04:00:02;;;;;;;26.38;18.77;;;;;;;;;;4988104;28;22510;-83
2022/03/10 04:02:28;;;;;;;23.92;17.95;;;;;;;;;;4990353;28;20460;-82
2022/03/10 04:04:56;;;;;;;27.27;19.10;;;;;;;;;;4989216;28;20467;-82
2022/03/10 04:07:22;;;;;;;21.63;17.40;;;;;;;;;;4986224;28;20434;-83
2022/03/10 04:09:49;;;;;;;24.75;17.85;;;;;;;;;;4988857;28;20927;-83
2022/03/10 04:12:15;;;;;;;22.57;18.10;;;;;;;;;;4989413;28;20427;-82
2022/03/10 04:14:41;;;;;;;22.25;17.35;;;;;;;;;;4989441;28;20457;-82
2022/03/10 04:17:07;;;;;;;23.17;17.90;;;;;;;;;;4990511;28;20445;-82
2022/03/10 04:19:34;;;;;;;24.60;18.42;;;;;;;;;;4988935;28;20506;-82
2022/03/10 04:22:01;;;;;;;25.60;18.50;;;;;;;;;;4991583;28;20867;-82
2022/03/10 04:24:27;;;;;;;24.20;18.48;;;;;;;;;;4989552;28;20441;-82
2022/03/10 04:26:54;;;;;;;23.50;18.05;;;;;;;;;;4987319;28;20441;-82
2022/03/10 04:29:20;;;;;;;26.02;19.00;;;;;;;;;;4988614;28;20428;-81
2022/03/10 04:31:46;;;;;;;24.53;18.50;;;;;;;;;;4990560;28;20422;-82
2022/03/10 04:34:12;;;;;;;24.10;18.83;;;;;;;;;;4988494;28;20944;-82
2022/03/10 04:36:39;;;;;;;24.70;18.30;;;;;;;;;;4988358;28;20430;-82
2022/03/10 04:39:06;;;;;;;27.35;18.88;;;;;;;;;;4990545;28;20947;-82
2022/03/10 04:41:34;;;;;;;25.08;18.65;;;;;;;;;;4989399;28;20445;-82
2022/03/10 04:44:00;;;;;;;25.10;19.20;;;;;;;;;;4992301;28;20440;-82
2022/03/10 04:46:26;;;;;;;25.88;19.60;;;;;;;;;;4991556;28;20449;-82
2022/03/10 04:48:53;;;;;;;24.20;19.20;;;;;;;;;;5009817;28;20490;-82
2022/03/10 04:51:19;;;;;;;24.02;19.00;;;;;;;;;;5007082;28;20475;-82
2022/03/10 04:53:46;;;;;;;26.00;19.00;;;;;;;;;;5010972;28;20425;-82
2022/03/10 04:56:13;;;;;;;25.85;18.60;;;;;;;;;;5007611;28;20417;-82
2022/03/10 04:58:39;;;;;;;25.73;18.23;;;;;;;;;;5008986;28;20421;-82
2022/03/10 05:01:06;;;;;;;22.90;18.25;;;;;;;;;;5011573;28;20442;-82
2022/03/10 05:03:32;;;;;;;23.08;18.00;;;;;;;;;;5008268;28;20421;-82
2022/03/10 05:05:59;;;;;;;24.40;18.08;;;;;;;;;;5008109;28;20928;-82
2022/03/10 05:08:25;;;;;;;22.02;17.33;;;;;;;;;;5009131;28;20428;-82
2022/03/10 05:10:51;;;;;;;24.35;17.52;;;;;;;;;;5007648;28;20447;-82
2022/03/10 05:13:19;;;;;;;25.42;16.98;;;;;;;;;;5009310;28;20432;-82
2022/03/10 05:15:45;;;;;;;23.63;16.77;;;;;;;;;;5007481;28;20434;-81
2022/03/10 05:18:12;;;;;;;23.23;17.38;;;;;;;;;;5006456;28;20435;-81
2022/03/10 05:20:38;;;;;;;22.60;18.40;;;;;;;;;;5008018;28;20449;-82
2022/03/10 05:23:04;;;;;;;27.00;17.60;;;;;;;;;;5008850;28;20450;-82
2022/03/10 05:25:32;;;;;;;23.73;19.17;;;;;;;;;;5010460;28;20454;-82
2022/03/10 05:27:59;;;;;;;24.80;18.40;;;;;;;;;;5007660;28;20421;-81
2022/03/10 05:30:26;;;;;;;25.45;18.73;;;;;;;;;;5009110;28;20970;-81
2022/03/10 05:32:53;;;;;;;23.83;18.38;;;;;;;;;;5008046;28;20503;-82
2022/03/10 05:35:20;;;;;;;82.68;65.93;;;;;;;;;;5007792;28;21745;-82
2022/03/10 05:37:48;;;;;;;35.50;26.60;;;;;;;;;;5007589;28;20525;-81
2022/03/10 05:40:17;;;;;;;42.38;37.95;;;;;;;;;;5007746;28;20460;-81
2022/03/10 05:42:43;;;;;;;124.97;110.93;;;;;;;;;;5007779;28;20433;-81
2022/03/10 05:45:10;;;;;;;104.90;77.80;;;;;;;;;;5008266;28;20457;-83
2022/03/10 05:47:39;;;;;;;88.07;68.47;;;;;;;;;;5006721;28;20430;-83
2022/03/10 05:50:06;;;;;;;68.50;50.88;;;;;;;;;;5008239;28;20432;-82
2022/03/10 05:52:32;;;;;;;37.97;31.27;;;;;;;;;;5007097;28;20434;-82
2022/03/10 05:54:58;;;;;;;38.00;33.85;;;;;;;;;;5007921;28;20438;-82
2022/03/10 05:57:25;;;;;;;25.75;19.52;;;;;;;;;;5006622;28;20664;-82
2022/03/10 05:59:51;;;;;;;26.98;20.55;;;;;;;;;;5006271;28;20428;-82
2022/03/10 06:02:17;;;;;;;24.08;17.27;;;;;;;;;;5009523;28;20864;-82
2022/03/10 06:04:45;;;;;;;22.08;17.38;;;;;;;;;;5005705;28;20440;-82
2022/03/10 06:07:12;;;;;;;22.50;17.10;;;;;;;;;;5006138;28;20918;-82
2022/03/10 06:09:38;;;;;;;22.00;16.83;;;;;;;;;;5008075;28;20492;-83
2022/03/10 06:12:05;;;;;;;22.90;17.25;;;;;;;;;;5005791;28;20478;-83
2022/03/10 06:14:31;;;;;;;22.83;17.50;;;;;;;;;;5007026;28;20428;-83
2022/03/10 06:16:58;;;;;;;25.08;17.38;;;;;;;;;;5006457;28;20437;-83
2022/03/10 06:19:24;;;;;;;25.92;19.30;;;;;;;;;;5006251;28;20440;-84
2022/03/10 06:21:52;;;;;;;21.33;16.83;;;;;;;;;;5006627;28;20483;-83
2022/03/10 06:24:18;;;;;;;21.13;16.60;;;;;;;;;;5007057;28;20540;-83
2022/03/10 06:26:44;;;;;;;21.50;16.55;;;;;;;;;;5004139;28;20436;-82
2022/03/10 06:29:13;;;;;;;22.75;16.42;;;;;;;;;;5007506;28;20464;-82
2022/03/10 06:31:40;;;;;;;20.48;15.82;;;;;;;;;;5006104;28;20527;-83
2022/03/10 06:34:06;;;;;;;21.25;16.58;;;;;;;;;;5008563;28;20438;-85
2022/03/10 06:36:32;;;;;;;20.85;16.67;;;;;;;;;;5009867;28;20958;-83
2022/03/10 06:39:00;;;;;;;22.23;15.80;;;;;;;;;;5009363;28;20456;-83
2022/03/10 06:41:26;;;;;;;26.30;16.00;;;;;;;;;;5006402;28;20497;-83
2022/03/10 06:43:52;;;;;;;21.35;15.82;;;;;;;;;;5011077;28;20425;-83
2022/03/10 06:46:19;;;;;;;20.58;15.30;;;;;;;;;;5009346;28;24007;-82
2022/03/10 06:48:45;;;;;;;24.17;18.27;;;;;;;;;;5008909;28;20448;-82
2022/03/10 06:51:11;;;;;;;23.67;18.00;;;;;;;;;;5011471;28;20420;-83
2022/03/10 06:53:37;;;;;;;25.00;19.15;;;;;;;;;;5009479;28;20428;-83
2022/03/10 06:56:05;;;;;;;43.30;38.55;;;;;;;;;;5009497;28;20518;-83
2022/03/10 06:58:32;;;;;;;124.97;97.93;;;;;;;;;;5008333;28;20433;-82
2022/03/10 07:00:59;;;;;;;40.50;35.15;;;;;;;;;;5010912;28;21068;-83
2022/03/10 07:03:25;;;;;;;37.72;28.83;;;;;;;;;;5008321;28;21005;-82
2022/03/10 07:05:51;;;;;;;25.03;18.03;;;;;;;;;;5078552;23;20430;-81
2022/03/10 07:08:18;;;;;;;22.00;16.42;;;;;;;;;;5044040;28;20451;-81
2022/03/10 07:10:44;;;;;;;23.58;16.45;;;;;;;;;;5043721;28;20637;-80
2022/03/10 07:13:12;;;;;;;23.08;15.57;;;;;;;;;;5041518;28;20423;-80
2022/03/10 07:15:38;;;;;;;18.43;15.07;;;;;;;;;;5043715;28;20433;-80
2022/03/10 07:18:05;;;;;;;22.55;17.10;;;;;;;;;;5044038;28;20439;-79
2022/03/10 07:20:31;;;;;;;20.67;15.05;;;;;;;;;;5046821;28;20454;-82
2022/03/10 07:22:58;;;;;;;19.42;15.05;;;;;;;;;;5046863;28;20419;-80
2022/03/10 07:25:24;;;;;;;19.27;15.57;;;;;;;;;;5048251;28;20438;-80
2022/03/10 07:27:50;;;;;;;20.85;14.80;;;;;;;;;;5047005;28;20419;-80
2022/03/10 07:30:18;;;;;;;19.75;15.00;;;;;;;;;;5043959;28;20779;-81
2022/03/10 07:32:44;;;;;;;20.05;16.02;;;;;;;;;;5041662;28;20426;-81
2022/03/10 07:35:10;;;;;;;26.27;16.30;;;;;;;;;;5044662;28;20799;-80
2022/03/10 07:37:36;;;;;;;19.90;14.32;;;;;;;;;;5043698;28;20427;-81
2022/03/10 07:40:03;;;;;;;19.57;14.67;;;;;;;;;;5044449;28;20527;-81
2022/03/10 07:42:29;;;;;;;20.50;15.67;;;;;;;;;;5042671;28;20996;-80
2022/03/10 07:44:56;;;;;;;20.90;15.50;;;;;;;;;;5042996;28;20485;-80
2022/03/10 07:47:23;;;;;;;21.13;15.37;;;;;;;;;;5045446;28;20465;-80
2022/03/10 07:49:50;;;;;;;20.63;15.32;;;;;;;;;;5042360;28;20440;-81
2022/03/10 07:52:16;;;;;;;18.95;15.25;;;;;;;;;;5041161;28;20423;-81
2022/03/10 07:54:42;;;;;;;21.83;15.82;;;;;;;;;;5045842;28;20484;-80
2022/03/10 07:57:08;;;;;;;19.50;15.25;;;;;;;;;;5047162;28;20414;-81
2022/03/10 07:59:35;;;;;;;20.85;15.05;;;;;;;;;;5048453;28;20421;-80
2022/03/10 08:02:01;;;;;;;21.85;15.23;;;;;;;;;;5048358;28;20432;-82
2022/03/10 08:04:29;;;;;;;18.58;14.60;;;;;;;;;;5047186;28;20936;-83
2022/03/10 08:06:55;;;;;;;20.63;14.88;;;;;;;;;;5047290;28;20435;-81
2022/03/10 08:09:22;;;;;;;22.25;15.25;;;;;;;;;;5047335;28;20489;-80
2022/03/10 08:11:48;;;;;;;19.77;15.23;;;;;;;;;;5046050;28;20435;-82
2022/03/10 08:14:14;;;;;;;24.63;15.35;;;;;;;;;;5051349;28;20473;-82
2022/03/10 08:16:41;;;;;;;26.95;15.90;;;;;;;;;;5050548;28;20446;-83
2022/03/10 08:19:09;;;;;;;20.50;15.70;;;;;;;;;;5045284;28;20439;-82
2022/03/10 08:21:36;;;;;;;21.35;14.95;;;;;;;;;;5045285;28;20464;-81
2022/03/10 08:24:03;;;;;;;19.48;14.57;;;;;;;;;;5047035;28;20846;-82
2022/03/10 08:26:29;;;;;;;22.45;14.43;;;;;;;;;;5049356;28;20850;-82
2022/03/10 08:28:56;;;;;;;20.38;14.35;;;;;;;;;;5043863;28;20455;-82
2022/03/10 08:31:23;;;;;;;21.27;14.45;;;;;;;;;;5046823;28;20489;-80
2022/03/10 08:33:50;;;;;;;24.80;15.57;;;;;;;;;;5047142;28;20452;-82
2022/03/10 08:36:17;;;;;;;23.85;17.25;;;;;;;;;;5048802;28;20792;-81
2022/03/10 08:38:45;;;;;;;24.20;15.85;;;;;;;;;;5047364;28;20435;-83
2022/03/10 08:41:11;;;;;;;20.95;14.82;;;;;;;;;;5046941;28;20438;-82
2022/03/10 08:43:37;;;;;;;19.77;14.10;;;;;;;;;;5045620;28;20448;-81
2022/03/10 08:46:04;;;;;;;18.42;13.85;;;;;;;;;;5048803;28;20431;-83
2022/03/10 08:48:31;;;;;;;19.40;13.80;;;;;;;;;;5046020;28;20434;-83
2022/03/10 08:50:58;;;;;;;16.13;13.20;;;;;;;;;;5048669;28;20790;-82
2022/03/10 08:53:24;;;;;;;17.98;13.90;;;;;;;;;;5045750;28;20430;-82
2022/03/10 08:55:52;;;;;;;18.63;14.10;;;;;;;;;;5046415;28;20464;-82
2022/03/10 08:58:19;;;;;;;21.33;14.50;;;;;;;;;;5045709;28;20431;-83
2022/03/10 09:00:45;;;;;;;16.53;13.63;;;;;;;;;;5047954;28;20448;-83
2022/03/10 09:03:11;;;;;;;21.70;13.88;;;;;;;;;;5048043;28;20477;-82
2022/03/10 09:05:40;;;;;;;17.48;13.73;;;;;;;;;;5049581;28;20461;-82
2022/03/10 09:08:06;;;;;;;21.65;14.27;;;;;;;;;;5049958;28;20448;-81
2022/03/10 09:10:32;;;;;;;18.08;13.48;;;;;;;;;;5049481;28;20493;-82
2022/03/10 09:13:00;;;;;;;21.30;13.43;;;;;;;;;;5050415;28;20423;-81
2022/03/10 09:15:27;;;;;;;18.77;12.73;;;;;;;;;;5051266;28;20410;-82
2022/03/10 09:17:53;;;;;;;18.65;13.38;;;;;;;;;;5050280;28;20441;-81
2022/03/10 09:20:21;;;;;;;16.52;11.88;;;;;;;;;;5046775;28;20484;-81
2022/03/10 09:22:47;;;;;;;16.88;11.70;;;;;;;;;;5046192;28;20420;-81
2022/03/10 09:25:14;;;;;;;18.47;13.07;;;;;;;;;;5043895;28;20496;-82
2022/03/10 09:27:40;;;;;;;16.45;12.40;;;;;;;;;;5043951;28;20428;-82
2022/03/10 09:30:10;;;;;;;18.73;12.70;;;;;;;;;;5048259;28;20418;-82
2022/03/10 09:32:36;;;;;;;17.42;13.00;;;;;;;;;;5043328;28;20425;-81
2022/03/10 09:35:03;;;;;;;18.52;12.73;;;;;;;;;;5044252;28;20815;-83
2022/03/10 09:37:30;;;;;;;16.30;13.05;;;;;;;;;;5044449;28;20465;-81
2022/03/10 09:39:56;;;;;;;18.07;13.00;;;;;;;;;;5044329;28;20423;-81
2022/03/10 09:42:25;;;;;;;16.80;11.93;;;;;;;;;;5042535;28;20483;-80
2022/03/10 09:44:53;;;;;;;17.05;12.85;;;;;;;;;;5044446;28;20441;-82
2022/03/10 09:47:20;;;;;;;20.52;12.57;;;;;;;;;;5042742;28;20427;-83
2022/03/10 09:49:47;;;;;;;22.30;13.18;;;;;;;;;;5043953;28;20427;-81
2022/03/10 09:52:13;;;;;;;16.80;11.83;;;;;;;;;;5044735;28;20413;-83
2022/03/10 09:54:40;;;;;;;16.90;12.98;;;;;;;;;;5044009;28;20433;-83
2022/03/10 09:57:07;;;;;;;19.83;13.27;;;;;;;;;;5043537;28;20441;-82
2022/03/10 09:59:33;;;;;;;15.57;12.88;;;;;;;;;;5043903;28;20910;-81
2022/03/10 10:02:00;;;;;;;19.13;13.27;;;;;;;;;;5042993;28;20978;-81
2022/03/10 10:04:29;;;;;;;17.10;13.10;;;;;;;;;;5046253;28;20423;-82
2022/03/10 10:07:03;;;;;;;19.80;12.68;;;;;;;;;;5045211;28;20485;-82
2022/03/10 10:09:40;;;;;;;18.60;12.50;;;;;;;;;;5041511;28;20794;-83
2022/03/10 10:12:06;;;;;;;20.33;13.52;;;;;;;;;;5041208;28;20428;-82
2022/03/10 10:14:36;;;;;;;18.40;12.95;;;;;;;;;;5043879;28;20433;-84
2022/03/10 10:17:02;;;;;;;17.73;12.50;;;;;;;;;;5043212;28;20448;-82
2022/03/10 10:19:32;;;;;;;19.25;13.43;;;;;;;;;;5046001;28;20438;-84
2022/03/10 10:22:08;;;;;;;17.90;13.00;;;;;;;;;;5042034;28;20777;-81
2022/03/10 10:24:35;;;;;;;17.77;13.45;;;;;;;;;;5040611;28;20437;-81
2022/03/10 10:27:12;;;;;;;17.10;12.10;;;;;;;;;;5040378;28;20427;-82
2022/03/10 10:29:45;;;;;;;17.65;12.55;;;;;;;;;;5039193;28;20439;-81
2022/03/10 10:32:11;;;;;;;17.13;12.57;;;;;;;;;;5039911;28;20843;-81
2022/03/10 10:34:38;;;;;;;17.50;13.10;;;;;;;;;;5038747;28;20830;-81
2022/03/10 10:37:05;;;;;;;19.67;14.17;;;;;;;;;;5039547;28;20484;-81
2022/03/10 10:39:31;;;;;;;15.15;13.30;;;;;;;;;;5041386;28;20508;-81
2022/03/10 10:41:57;;;;;;;16.42;12.38;;;;;;;;;;5040907;28;20416;-80
2022/03/10 10:44:24;;;;;;;16.40;12.48;;;;;;;;;;5039219;28;20479;-80
2022/03/10 10:46:54;;;;;;;15.70;12.07;;;;;;;;;;5042726;28;20511;-81
2022/03/10 10:49:22;;;;;;;16.53;12.90;;;;;;;;;;5044901;28;20436;-82
2022/03/10 10:51:50;;;;;;;21.70;13.20;;;;;;;;;;5044462;28;20445;-82
2022/03/10 10:54:24;;;;;;;16.30;12.60;;;;;;;;;;5045963;28;20429;-83
2022/03/10 10:56:51;;;;;;;16.83;12.43;;;;;;;;;;5049771;28;20429;-82
2022/03/10 10:59:30;;;;;;;16.90;12.85;;;;;;;;;;5045764;28;20860;-83
2022/03/10 11:02:09;;;;;;;17.98;13.75;;;;;;;;;;5044116;28;20405;-81
2022/03/10 11:04:36;;;;;;;19.20;13.32;;;;;;;;;;5041567;28;20436;-82
2022/03/10 11:07:04;;;;;;;15.63;13.63;;;;;;;;;;5046531;28;20879;-83
2022/03/10 11:09:31;;;;;;;19.08;12.30;;;;;;;;;;5046610;28;20497;-82
2022/03/10 11:11:57;;;;;;;14.80;11.50;;;;;;;;;;5045208;28;20416;-81
2022/03/10 11:14:24;;;;;;;16.55;12.50;;;;;;;;;;5045039;28;20478;-81
2022/03/10 11:16:50;;;;;;;16.42;11.80;;;;;;;;;;5044998;28;20408;-82
2022/03/10 11:19:20;;;;;;;16.65;12.43;;;;;;;;;;5047854;28;20417;-83
2022/03/10 11:21:53;;;;;;;19.90;12.82;;;;;;;;;;5047102;28;21179;-82
2022/03/10 11:24:30;;;;;;;15.88;12.98;;;;;;;;;;5049639;28;20409;-81
2022/03/10 11:27:00;;;;;;;19.77;13.10;;;;;;;;;;5046659;28;20408;-82
2022/03/10 11:29:27;;;;;;;18.85;14.43;;;;;;;;;;5047543;28;20417;-83
2022/03/10 11:31:55;;;;;;;17.95;13.45;;;;;;;;;;5050890;28;20421;-83
2022/03/10 11:34:40;;;;;;;17.70;13.20;;;;;;;;;;5047427;28;20495;-82
2022/03/10 11:37:09;;;;;;;20.65;13.43;;;;;;;;;;5048090;28;20434;-82
2022/03/10 11:39:52;;;;;;;18.15;12.85;;;;;;;;;;5045257;28;20506;-82
2022/03/10 11:42:25;;;;;;;15.50;13.07;;;;;;;;;;5045820;28;20984;-82
2022/03/10 11:45:04;;;;;;;18.60;12.23;;;;;;;;;;5049903;28;20420;-83
2022/03/10 11:47:31;;;;;;;14.70;12.20;;;;;;;;;;5048072;28;20411;-81
2022/03/10 11:49:57;;;;;;;18.60;13.70;;;;;;;;;;5045054;28;20434;-81
2022/03/10 11:52:23;;;;;;;17.92;13.05;;;;;;;;;;5046699;28;20780;-81
2022/03/10 11:55:05;;;;;;;15.95;13.30;;;;;;;;;;5043122;28;21019;-81
2022/03/10 11:57:41;;;;;;;16.65;12.73;;;;;;;;;;5042290;28;20486;-81
2022/03/10 12:00:08;;;;;;;15.77;12.30;;;;;;;;;;5043927;28;20793;-81
2022/03/10 12:02:43;;;;;;;16.27;12.63;;;;;;;;;;5040333;28;20423;-81
2022/03/10 12:05:09;;;;;;;14.98;12.65;;;;;;;;;;5041241;28;20422;-81
2022/03/10 12:07:40;;;;;;;17.77;13.20;;;;;;;;;;5042208;28;20427;-81
2022/03/10 12:10:09;;;;;;;15.43;12.57;;;;;;;;;;5041808;28;20912;-83
2022/03/10 12:12:36;;;;;;;14.35;12.05;;;;;;;;;;5039906;28;20423;-82
2022/03/10 12:15:17;;;;;;;16.40;12.90;;;;;;;;;;5041931;28;20448;-81
2022/03/10 12:17:52;;;;;;;16.10;13.20;;;;;;;;;;5033367;28;20472;-81
2022/03/10 12:20:20;;;;;;;17.88;12.63;;;;;;;;;;5041796;28;20425;-81
2022/03/10 12:23:01;;;;;;;17.58;12.38;;;;;;;;;;5045507;28;21000;-83
2022/03/10 12:25:29;;;;;;;15.35;13.13;;;;;;;;;;5046437;28;20439;-83
2022/03/10 12:27:56;;;;;;;17.58;14.13;;;;;;;;;;5048999;28;20426;-82
2022/03/10 12:30:24;;;;;;;15.50;12.60;;;;;;;;;;5050502;28;20413;-81
2022/03/10 12:32:52;;;;;;;14.57;12.73;;;;;;;;;;5050140;28;20441;-83
2022/03/10 12:35:19;;;;;;;17.85;12.55;;;;;;;;;;5049568;28;20858;-82
2022/03/10 12:37:46;;;;;;;18.75;13.60;;;;;;;;;;5047920;28;20429;-83
2022/03/10 12:40:17;;;;;;;17.17;12.83;;;;;;;;;;5047350;28;20428;-83
2022/03/10 12:42:47;;;;;;;14.85;13.10;;;;;;;;;;5050668;28;20425;-82
2022/03/10 12:45:14;;;;;;;18.45;13.20;;;;;;;;;;5049779;28;20445;-83
2022/03/10 12:47:43;;;;;;;17.35;13.18;;;;;;;;;;5046289;28;20432;-81
2022/03/10 12:50:09;;;;;;;14.50;12.68;;;;;;;;;;5051332;28;20411;-83
2022/03/10 12:52:40;;;;;;;16.85;12.40;;;;;;;;;;5050744;28;20423;-83
2022/03/10 12:55:07;;;;;;;16.00;13.13;;;;;;;;;;5050972;28;20562;-82
2022/03/10 12:57:35;;;;;;;14.63;12.40;;;;;;;;;;5048353;28;20423;-81
2022/03/10 13:00:03;;;;;;;16.88;12.15;;;;;;;;;;5047614;28;21603;-83
2022/03/10 13:02:37;;;;;;;15.15;12.93;;;;;;;;;;5046167;28;20450;-83
2022/03/10 13:05:03;;;;;;;14.10;12.00;;;;;;;;;;5156217;23;20812;-85
2022/03/10 13:07:31;;;;;;;14.88;12.45;;;;;;;;;;5047378;28;20419;-85
2022/03/10 13:09:58;;;;;;;15.57;12.30;;;;;;;;;;5045022;28;20421;-84
2022/03/10 13:12:25;;;;;;;15.37;12.20;;;;;;;;;;5047773;28;20417;-83
2022/03/10 13:14:51;;;;;;;17.00;13.00;;;;;;;;;;5045731;28;20482;-83
2022/03/10 13:17:29;;;;;;;16.02;12.43;;;;;;;;;;5045361;28;20450;-83
2022/03/10 13:19:56;;;;;;;15.02;13.15;;;;;;;;;;5045366;28;20453;-83
2022/03/10 13:22:22;;;;;;;13.88;12.38;;;;;;;;;;5045591;28;20443;-82
2022/03/10 13:24:50;;;;;;;14.30;12.13;;;;;;;;;;5046767;28;20421;-84
2022/03/10 13:27:18;;;;;;;15.40;12.20;;;;;;;;;;5045853;28;20422;-84
2022/03/10 13:29:45;;;;;;;13.05;11.63;;;;;;;;;;5040858;28;20485;-82
2022/03/10 13:32:12;;;;;;;14.00;11.73;;;;;;;;;;5043002;28;20461;-83
2022/03/10 13:34:40;;;;;;;14.02;11.93;;;;;;;;;;5046101;28;20434;-84
2022/03/10 13:37:07;;;;;;;15.00;11.80;;;;;;;;;;5046482;28;20473;-83
2022/03/10 13:39:43;;;;;;;15.10;12.60;;;;;;;;;;5112652;27;20434;-82
2022/03/10 13:42:11;;;;;;;13.27;11.60;;;;;;;;;;5106114;27;20410;-82
2022/03/10 13:44:37;;;;;;;14.13;11.57;;;;;;;;;;5092195;28;20899;-82
2022/03/10 13:47:04;;;;;;;13.30;11.20;;;;;;;;;;5095172;28;20415;-83
2022/03/10 13:49:30;;;;;;;14.95;11.77;;;;;;;;;;5086476;28;20422;-83
2022/03/10 13:51:57;;;;;;;13.10;11.70;;;;;;;;;;5090866;28;20410;-82
2022/03/10 13:54:26;;;;;;;15.35;12.40;;;;;;;;;;5089471;28;20490;-83
2022/03/10 13:57:01;;;;;;;13.85;12.35;;;;;;;;;;5088580;28;20429;-82
2022/03/10 13:59:27;;;;;;;15.97;12.63;;;;;;;;;;5090538;28;20811;-82
2022/03/10 14:01:54;;;;;;;15.32;11.63;;;;;;;;;;5093555;27;20773;-82
2022/03/10 14:04:20;;;;;;;15.23;11.50;;;;;;;;;;5088973;28;20407;-83
2022/03/10 14:06:47;;;;;;;14.20;11.80;;;;;;;;;;5087480;27;20472;-82
2022/03/10 14:09:18;;;;;;;13.77;12.02;;;;;;;;;;5091027;28;20421;-82
2022/03/10 14:11:44;;;;;;;15.52;11.23;;;;;;;;;;5089061;28;20427;-83
2022/03/10 14:14:12;;;;;;;12.88;11.52;;;;;;;;;;5092794;28;20422;-82
2022/03/10 14:16:49;;;;;;;13.25;11.70;;;;;;;;;;5094524;27;20444;-84
2022/03/10 14:19:20;;;;;;;14.52;11.85;;;;;;;;;;5095569;28;20814;-83
2022/03/10 14:21:50;;;;;;;14.60;11.43;;;;;;;;;;5093650;28;20517;-83
2022/03/10 14:24:24;;;;;;;16.55;11.35;;;;;;;;;;5095036;28;20436;-84